sensor_id;sensor_type;location;lat;lon;timestamp;P1;durP1;ratioP1;P2;durP2;ratioP2
6386;SDS011;3226;42.162;24.756;2024-03-08T00:00:13;36.20;;;21.23;;
6386;SDS011;3226;42.162;24.756;2024-03-08T00:02:46;37.93;;;23.33;;
6386;SDS011;3226;42.162;24.756;2024-03-08T00:05:14;41.97;;;23.17;;
6386;SDS011;3226;42.162;24.756;2024-03-08T00:07:44;36.33;;;21.83;;
6386;SDS011;3226;42.162;24.756;2024-03-08T00:10:12;33.77;;;21.10;;
6386;SDS011;3226;42.162;24.756;2024-03-08T00:12:42;32.17;;;20.07;;
6386;SDS011;3226;42.162;24.756;2024-03-08T00:15:11;33.63;;;21.00;;
6386;SDS011;3226;42.162;24.756;2024-03-08T00:17:42;34.17;;;20.13;;
6386;SDS011;3226;42.162;24.756;2024-03-08T00:20:11;38.90;;;22.53;;
6386;SDS011;3226;42.162;24.756;2024-03-08T00:22:41;33.00;;;21.20;;
6386;SDS011;3226;42.162;24.756;2024-03-08T00:25:10;36.13;;;19.23;;
6386;SDS011;3226;42.162;24.756;2024-03-08T00:27:38;33.00;;;19.83;;
6386;SDS011;3226;42.162;24.756;2024-03-08T00:30:07;36.40;;;20.40;;
6386;SDS011;3226;42.162;24.756;2024-03-08T00:32:37;43.60;;;21.37;;
6386;SDS011;3226;42.162;24.756;2024-03-08T00:35:05;35.27;;;20.23;;
6386;SDS011;3226;42.162;24.756;2024-03-08T00:37:34;37.20;;;21.37;;
6386;SDS011;3226;42.162;24.756;2024-03-08T00:40:03;33.03;;;20.87;;
6386;SDS011;3226;42.162;24.756;2024-03-08T00:42:33;37.00;;;22.33;;
6386;SDS011;3226;42.162;24.756;2024-03-08T00:45:01;34.67;;;20.47;;
6386;SDS011;3226;42.162;24.756;2024-03-08T00:47:30;35.57;;;21.33;;
6386;SDS011;3226;42.162;24.756;2024-03-08T00:49:58;36.47;;;20.33;;
6386;SDS011;3226;42.162;24.756;2024-03-08T00:52:26;33.77;;;20.13;;
6386;SDS011;3226;42.162;24.756;2024-03-08T00:54:54;33.73;;;20.63;;
6386;SDS011;3226;42.162;24.756;2024-03-08T00:57:23;39.83;;;22.80;;
6386;SDS011;3226;42.162;24.756;2024-03-08T00:59:51;37.47;;;22.73;;
6386;SDS011;3226;42.162;24.756;2024-03-08T01:02:19;44.67;;;22.70;;
6386;SDS011;3226;42.162;24.756;2024-03-08T01:04:49;38.73;;;22.17;;
6386;SDS011;3226;42.162;24.756;2024-03-08T01:07:17;40.47;;;21.83;;
6386;SDS011;3226;42.162;24.756;2024-03-08T01:09:45;35.30;;;20.47;;
6386;SDS011;3226;42.162;24.756;2024-03-08T01:12:13;38.30;;;23.63;;
6386;SDS011;3226;42.162;24.756;2024-03-08T01:14:43;37.80;;;22.47;;
6386;SDS011;3226;42.162;24.756;2024-03-08T01:17:10;38.93;;;21.27;;
6386;SDS011;3226;42.162;24.756;2024-03-08T01:19:39;37.53;;;21.07;;
6386;SDS011;3226;42.162;24.756;2024-03-08T01:22:07;39.73;;;21.50;;
6386;SDS011;3226;42.162;24.756;2024-03-08T01:24:35;42.97;;;22.07;;
6386;SDS011;3226;42.162;24.756;2024-03-08T01:27:03;41.40;;;21.47;;
6386;SDS011;3226;42.162;24.756;2024-03-08T01:29:32;32.70;;;20.60;;
6386;SDS011;3226;42.162;24.756;2024-03-08T01:32:01;47.03;;;24.30;;
6386;SDS011;3226;42.162;24.756;2024-03-08T01:34:29;44.60;;;23.53;;
6386;SDS011;3226;42.162;24.756;2024-03-08T01:36:57;39.57;;;22.80;;
6386;SDS011;3226;42.162;24.756;2024-03-08T01:39:25;32.90;;;19.93;;
6386;SDS011;3226;42.162;24.756;2024-03-08T01:41:53;32.87;;;20.87;;
6386;SDS011;3226;42.162;24.756;2024-03-08T01:44:22;37.83;;;21.13;;
6386;SDS011;3226;42.162;24.756;2024-03-08T01:46:50;33.63;;;21.60;;
6386;SDS011;3226;42.162;24.756;2024-03-08T01:49:21;34.33;;;21.77;;
6386;SDS011;3226;42.162;24.756;2024-03-08T01:51:50;33.97;;;20.63;;
6386;SDS011;3226;42.162;24.756;2024-03-08T01:54:18;31.47;;;19.90;;
6386;SDS011;3226;42.162;24.756;2024-03-08T01:56:47;32.77;;;20.33;;
6386;SDS011;3226;42.162;24.756;2024-03-08T01:59:15;32.73;;;19.13;;
6386;SDS011;3226;42.162;24.756;2024-03-08T02:01:44;29.73;;;19.33;;
6386;SDS011;3226;42.162;24.756;2024-03-08T02:04:11;36.43;;;20.83;;
6386;SDS011;3226;42.162;24.756;2024-03-08T02:06:41;32.77;;;20.67;;
6386;SDS011;3226;42.162;24.756;2024-03-08T02:09:09;32.27;;;21.00;;
6386;SDS011;3226;42.162;24.756;2024-03-08T02:11:37;41.20;;;20.90;;
6386;SDS011;3226;42.162;24.756;2024-03-08T02:14:05;34.13;;;19.93;;
6386;SDS011;3226;42.162;24.756;2024-03-08T02:16:33;34.77;;;20.87;;
6386;SDS011;3226;42.162;24.756;2024-03-08T02:19:01;35.37;;;19.37;;
6386;SDS011;3226;42.162;24.756;2024-03-08T02:21:30;29.87;;;19.43;;
6386;SDS011;3226;42.162;24.756;2024-03-08T02:23:58;34.83;;;21.07;;
6386;SDS011;3226;42.162;24.756;2024-03-08T02:26:26;33.93;;;20.67;;
6386;SDS011;3226;42.162;24.756;2024-03-08T02:28:54;33.40;;;22.30;;
6386;SDS011;3226;42.162;24.756;2024-03-08T02:31:22;33.00;;;21.20;;
6386;SDS011;3226;42.162;24.756;2024-03-08T02:33:50;35.87;;;21.20;;
6386;SDS011;3226;42.162;24.756;2024-03-08T02:36:18;32.37;;;20.93;;
6386;SDS011;3226;42.162;24.756;2024-03-08T02:38:48;34.43;;;21.37;;
6386;SDS011;3226;42.162;24.756;2024-03-08T02:41:16;30.53;;;20.47;;
6386;SDS011;3226;42.162;24.756;2024-03-08T02:43:44;40.63;;;22.27;;
6386;SDS011;3226;42.162;24.756;2024-03-08T02:46:12;31.77;;;20.70;;
6386;SDS011;3226;42.162;24.756;2024-03-08T02:48:39;33.57;;;19.53;;
6386;SDS011;3226;42.162;24.756;2024-03-08T02:51:08;33.30;;;19.40;;
6386;SDS011;3226;42.162;24.756;2024-03-08T02:53:37;26.87;;;18.70;;
6386;SDS011;3226;42.162;24.756;2024-03-08T02:56:06;27.23;;;18.40;;
6386;SDS011;3226;42.162;24.756;2024-03-08T02:58:35;27.83;;;19.43;;
6386;SDS011;3226;42.162;24.756;2024-03-08T03:01:03;27.20;;;18.53;;
6386;SDS011;3226;42.162;24.756;2024-03-08T03:03:31;28.90;;;19.70;;
6386;SDS011;3226;42.162;24.756;2024-03-08T03:05:59;31.53;;;19.20;;
6386;SDS011;3226;42.162;24.756;2024-03-08T03:08:27;29.70;;;20.03;;
6386;SDS011;3226;42.162;24.756;2024-03-08T03:10:55;29.17;;;19.27;;
6386;SDS011;3226;42.162;24.756;2024-03-08T03:13:25;31.57;;;18.93;;
6386;SDS011;3226;42.162;24.756;2024-03-08T03:15:53;31.67;;;19.87;;
6386;SDS011;3226;42.162;24.756;2024-03-08T03:18:21;32.07;;;20.13;;
6386;SDS011;3226;42.162;24.756;2024-03-08T03:20:50;34.33;;;20.97;;
6386;SDS011;3226;42.162;24.756;2024-03-08T03:23:18;44.00;;;21.20;;
6386;SDS011;3226;42.162;24.756;2024-03-08T03:25:47;35.37;;;21.03;;
6386;SDS011;3226;42.162;24.756;2024-03-08T03:28:15;35.70;;;20.43;;
6386;SDS011;3226;42.162;24.756;2024-03-08T03:30:46;33.67;;;21.80;;
6386;SDS011;3226;42.162;24.756;2024-03-08T03:33:14;36.03;;;20.97;;
6386;SDS011;3226;42.162;24.756;2024-03-08T03:35:43;34.10;;;22.03;;
6386;SDS011;3226;42.162;24.756;2024-03-08T03:38:12;36.73;;;21.40;;
6386;SDS011;3226;42.162;24.756;2024-03-08T03:40:40;40.77;;;22.40;;
6386;SDS011;3226;42.162;24.756;2024-03-08T03:43:08;34.37;;;21.23;;
6386;SDS011;3226;42.162;24.756;2024-03-08T03:45:38;36.33;;;20.83;;
6386;SDS011;3226;42.162;24.756;2024-03-08T03:48:10;33.67;;;19.87;;
6386;SDS011;3226;42.162;24.756;2024-03-08T03:50:38;38.63;;;21.77;;
6386;SDS011;3226;42.162;24.756;2024-03-08T03:53:07;38.13;;;20.30;;
6386;SDS011;3226;42.162;24.756;2024-03-08T03:55:37;34.73;;;21.00;;
6386;SDS011;3226;42.162;24.756;2024-03-08T03:58:07;38.80;;;22.10;;
6386;SDS011;3226;42.162;24.756;2024-03-08T04:00:37;38.60;;;21.87;;
6386;SDS011;3226;42.162;24.756;2024-03-08T04:03:05;38.73;;;23.00;;
6386;SDS011;3226;42.162;24.756;2024-03-08T04:05:35;38.60;;;21.60;;
6386;SDS011;3226;42.162;24.756;2024-03-08T04:08:03;39.57;;;23.27;;
6386;SDS011;3226;42.162;24.756;2024-03-08T04:10:32;39.20;;;22.73;;
6386;SDS011;3226;42.162;24.756;2024-03-08T04:13:00;37.63;;;23.73;;
6386;SDS011;3226;42.162;24.756;2024-03-08T04:15:28;35.33;;;22.80;;
6386;SDS011;3226;42.162;24.756;2024-03-08T04:17:56;38.97;;;24.13;;
6386;SDS011;3226;42.162;24.756;2024-03-08T04:20:27;43.03;;;26.83;;
6386;SDS011;3226;42.162;24.756;2024-03-08T04:22:56;43.07;;;25.63;;
6386;SDS011;3226;42.162;24.756;2024-03-08T04:25:24;39.97;;;26.23;;
6386;SDS011;3226;42.162;24.756;2024-03-08T04:27:53;40.00;;;24.90;;
6386;SDS011;3226;42.162;24.756;2024-03-08T04:30:21;34.50;;;22.00;;
6386;SDS011;3226;42.162;24.756;2024-03-08T04:32:49;38.47;;;23.00;;
6386;SDS011;3226;42.162;24.756;2024-03-08T04:35:17;42.87;;;23.90;;
6386;SDS011;3226;42.162;24.756;2024-03-08T04:37:46;42.23;;;23.10;;
6386;SDS011;3226;42.162;24.756;2024-03-08T04:40:16;46.03;;;23.90;;
6386;SDS011;3226;42.162;24.756;2024-03-08T04:42:45;43.10;;;23.00;;
6386;SDS011;3226;42.162;24.756;2024-03-08T04:45:13;40.50;;;24.77;;
6386;SDS011;3226;42.162;24.756;2024-03-08T04:47:41;49.17;;;24.37;;
6386;SDS011;3226;42.162;24.756;2024-03-08T04:50:09;38.53;;;22.03;;
6386;SDS011;3226;42.162;24.756;2024-03-08T04:52:37;45.43;;;24.63;;
6386;SDS011;3226;42.162;24.756;2024-03-08T04:55:06;44.70;;;23.50;;
6386;SDS011;3226;42.162;24.756;2024-03-08T04:57:35;40.90;;;23.47;;
6386;SDS011;3226;42.162;24.756;2024-03-08T05:00:03;41.40;;;24.40;;
6386;SDS011;3226;42.162;24.756;2024-03-08T05:02:37;42.10;;;24.63;;
6386;SDS011;3226;42.162;24.756;2024-03-08T05:05:05;42.90;;;24.00;;
6386;SDS011;3226;42.162;24.756;2024-03-08T05:07:33;48.63;;;27.47;;
6386;SDS011;3226;42.162;24.756;2024-03-08T05:10:01;51.27;;;26.63;;
6386;SDS011;3226;42.162;24.756;2024-03-08T05:12:29;45.10;;;27.47;;
6386;SDS011;3226;42.162;24.756;2024-03-08T05:14:59;42.40;;;23.37;;
6386;SDS011;3226;42.162;24.756;2024-03-08T05:17:27;46.43;;;24.87;;
6386;SDS011;3226;42.162;24.756;2024-03-08T05:19:56;46.03;;;24.97;;
6386;SDS011;3226;42.162;24.756;2024-03-08T05:22:24;50.53;;;27.00;;
6386;SDS011;3226;42.162;24.756;2024-03-08T05:24:52;50.97;;;26.43;;
6386;SDS011;3226;42.162;24.756;2024-03-08T05:27:20;47.67;;;27.17;;
6386;SDS011;3226;42.162;24.756;2024-03-08T05:29:48;55.50;;;29.13;;
6386;SDS011;3226;42.162;24.756;2024-03-08T05:32:17;52.30;;;29.40;;
6386;SDS011;3226;42.162;24.756;2024-03-08T05:34:45;54.13;;;29.50;;
6386;SDS011;3226;42.162;24.756;2024-03-08T05:37:13;52.73;;;28.27;;
6386;SDS011;3226;42.162;24.756;2024-03-08T05:39:41;51.13;;;28.30;;
6386;SDS011;3226;42.162;24.756;2024-03-08T05:42:10;52.07;;;27.97;;
6386;SDS011;3226;42.162;24.756;2024-03-08T05:44:39;54.63;;;29.00;;
6386;SDS011;3226;42.162;24.756;2024-03-08T05:47:07;57.67;;;30.97;;
6386;SDS011;3226;42.162;24.756;2024-03-08T05:49:36;56.43;;;30.67;;
6386;SDS011;3226;42.162;24.756;2024-03-08T05:52:04;59.27;;;30.47;;
6386;SDS011;3226;42.162;24.756;2024-03-08T05:54:32;50.00;;;29.40;;
6386;SDS011;3226;42.162;24.756;2024-03-08T05:57:00;47.93;;;26.53;;
6386;SDS011;3226;42.162;24.756;2024-03-08T05:59:28;43.93;;;24.70;;
6386;SDS011;3226;42.162;24.756;2024-03-08T06:01:55;43.97;;;25.23;;
6386;SDS011;3226;42.162;24.756;2024-03-08T06:04:24;48.73;;;27.03;;
6386;SDS011;3226;42.162;24.756;2024-03-08T06:06:53;52.17;;;27.97;;
6386;SDS011;3226;42.162;24.756;2024-03-08T06:09:22;56.93;;;28.17;;
6386;SDS011;3226;42.162;24.756;2024-03-08T06:11:51;49.20;;;29.00;;
6386;SDS011;3226;42.162;24.756;2024-03-08T06:14:20;55.40;;;27.53;;
6386;SDS011;3226;42.162;24.756;2024-03-08T06:16:49;56.70;;;26.93;;
6386;SDS011;3226;42.162;24.756;2024-03-08T06:19:17;45.50;;;25.23;;
6386;SDS011;3226;42.162;24.756;2024-03-08T06:21:45;47.93;;;25.73;;
6386;SDS011;3226;42.162;24.756;2024-03-08T06:24:14;49.90;;;26.37;;
6386;SDS011;3226;42.162;24.756;2024-03-08T06:26:43;54.13;;;25.23;;
6386;SDS011;3226;42.162;24.756;2024-03-08T06:29:11;55.00;;;28.50;;
6386;SDS011;3226;42.162;24.756;2024-03-08T06:31:39;46.60;;;25.90;;
6386;SDS011;3226;42.162;24.756;2024-03-08T06:34:07;47.63;;;25.83;;
6386;SDS011;3226;42.162;24.756;2024-03-08T06:36:35;45.43;;;25.17;;
6386;SDS011;3226;42.162;24.756;2024-03-08T06:39:04;45.37;;;25.37;;
6386;SDS011;3226;42.162;24.756;2024-03-08T06:41:37;45.33;;;25.17;;
6386;SDS011;3226;42.162;24.756;2024-03-08T06:44:06;57.00;;;29.03;;
6386;SDS011;3226;42.162;24.756;2024-03-08T06:46:35;47.20;;;26.50;;
6386;SDS011;3226;42.162;24.756;2024-03-08T06:49:04;47.23;;;28.23;;
6386;SDS011;3226;42.162;24.756;2024-03-08T06:51:33;50.40;;;26.03;;
6386;SDS011;3226;42.162;24.756;2024-03-08T06:54:01;48.50;;;26.30;;
6386;SDS011;3226;42.162;24.756;2024-03-08T06:56:35;49.43;;;26.07;;
6386;SDS011;3226;42.162;24.756;2024-03-08T06:59:04;44.40;;;24.50;;
6386;SDS011;3226;42.162;24.756;2024-03-08T07:01:32;44.33;;;26.30;;
6386;SDS011;3226;42.162;24.756;2024-03-08T07:04:03;41.83;;;24.97;;
6386;SDS011;3226;42.162;24.756;2024-03-08T07:06:32;40.73;;;24.00;;
6386;SDS011;3226;42.162;24.756;2024-03-08T07:09:00;48.83;;;25.03;;
6386;SDS011;3226;42.162;24.756;2024-03-08T07:11:29;48.43;;;25.60;;
6386;SDS011;3226;42.162;24.756;2024-03-08T07:13:57;41.83;;;24.80;;
6386;SDS011;3226;42.162;24.756;2024-03-08T07:16:26;43.97;;;24.67;;
6386;SDS011;3226;42.162;24.756;2024-03-08T07:18:54;49.20;;;24.97;;
6386;SDS011;3226;42.162;24.756;2024-03-08T07:21:23;46.97;;;23.90;;
6386;SDS011;3226;42.162;24.756;2024-03-08T07:23:51;43.00;;;24.10;;
6386;SDS011;3226;42.162;24.756;2024-03-08T07:26:39;39.17;;;22.53;;
6386;SDS011;3226;42.162;24.756;2024-03-08T07:29:07;33.83;;;20.90;;
6386;SDS011;3226;42.162;24.756;2024-03-08T07:31:38;44.17;;;23.23;;
6386;SDS011;3226;42.162;24.756;2024-03-08T07:34:17;36.70;;;23.27;;
6386;SDS011;3226;42.162;24.756;2024-03-08T07:36:45;34.83;;;20.80;;
6386;SDS011;3226;42.162;24.756;2024-03-08T07:39:13;38.63;;;22.30;;
6386;SDS011;3226;42.162;24.756;2024-03-08T07:41:41;35.37;;;21.27;;
6386;SDS011;3226;42.162;24.756;2024-03-08T07:44:09;44.83;;;23.23;;
6386;SDS011;3226;42.162;24.756;2024-03-08T07:46:38;32.43;;;20.47;;
6386;SDS011;3226;42.162;24.756;2024-03-08T07:49:07;40.03;;;23.43;;
6386;SDS011;3226;42.162;24.756;2024-03-08T07:51:37;36.63;;;21.97;;
6386;SDS011;3226;42.162;24.756;2024-03-08T07:54:05;41.30;;;23.60;;
6386;SDS011;3226;42.162;24.756;2024-03-08T07:56:35;35.77;;;21.67;;
6386;SDS011;3226;42.162;24.756;2024-03-08T07:59:04;39.53;;;23.20;;
6386;SDS011;3226;42.162;24.756;2024-03-08T08:01:33;39.60;;;22.30;;
6386;SDS011;3226;42.162;24.756;2024-03-08T08:04:02;33.60;;;21.90;;
6386;SDS011;3226;42.162;24.756;2024-03-08T08:06:31;36.07;;;23.27;;
6386;SDS011;3226;42.162;24.756;2024-03-08T08:08:59;31.70;;;21.40;;
6386;SDS011;3226;42.162;24.756;2024-03-08T08:11:28;38.07;;;22.10;;
6386;SDS011;3226;42.162;24.756;2024-03-08T08:13:56;36.97;;;22.60;;
6386;SDS011;3226;42.162;24.756;2024-03-08T08:16:25;38.67;;;22.60;;
6386;SDS011;3226;42.162;24.756;2024-03-08T08:18:53;34.33;;;23.43;;
6386;SDS011;3226;42.162;24.756;2024-03-08T08:21:23;36.67;;;26.20;;
6386;SDS011;3226;42.162;24.756;2024-03-08T08:23:52;35.77;;;21.20;;
6386;SDS011;3226;42.162;24.756;2024-03-08T08:26:21;36.77;;;21.23;;
6386;SDS011;3226;42.162;24.756;2024-03-08T08:28:52;35.57;;;21.07;;
6386;SDS011;3226;42.162;24.756;2024-03-08T08:31:21;36.00;;;22.60;;
6386;SDS011;3226;42.162;24.756;2024-03-08T08:33:49;38.77;;;22.77;;
6386;SDS011;3226;42.162;24.756;2024-03-08T08:36:20;40.20;;;26.70;;
6386;SDS011;3226;42.162;24.756;2024-03-08T08:38:49;39.13;;;24.57;;
6386;SDS011;3226;42.162;24.756;2024-03-08T08:41:20;30.40;;;20.47;;
6386;SDS011;3226;42.162;24.756;2024-03-08T08:43:48;30.83;;;22.03;;
6386;SDS011;3226;42.162;24.756;2024-03-08T08:46:33;32.13;;;24.03;;
6386;SDS011;3226;42.162;24.756;2024-03-08T08:49:07;30.40;;;21.90;;
6386;SDS011;3226;42.162;24.756;2024-03-08T08:51:37;33.37;;;21.50;;
6386;SDS011;3226;42.162;24.756;2024-03-08T08:54:06;33.63;;;27.70;;
6386;SDS011;3226;42.162;24.756;2024-03-08T08:56:38;32.30;;;19.83;;
6386;SDS011;3226;42.162;24.756;2024-03-08T08:59:06;33.43;;;20.90;;
6386;SDS011;3226;42.162;24.756;2024-03-08T09:01:34;33.37;;;21.33;;
6386;SDS011;3226;42.162;24.756;2024-03-08T09:04:02;34.40;;;18.53;;
6386;SDS011;3226;42.162;24.756;2024-03-08T09:06:29;27.50;;;20.67;;
6386;SDS011;3226;42.162;24.756;2024-03-08T09:08:57;32.00;;;18.03;;
6386;SDS011;3226;42.162;24.756;2024-03-08T09:11:30;33.70;;;19.17;;
6386;SDS011;3226;42.162;24.756;2024-03-08T09:13:58;27.80;;;18.87;;
6386;SDS011;3226;42.162;24.756;2024-03-08T09:16:26;30.10;;;18.67;;
6386;SDS011;3226;42.162;24.756;2024-03-08T09:18:54;31.10;;;23.87;;
6386;SDS011;3226;42.162;24.756;2024-03-08T09:21:22;38.63;;;20.07;;
6386;SDS011;3226;42.162;24.756;2024-03-08T09:23:50;32.23;;;21.50;;
6386;SDS011;3226;42.162;24.756;2024-03-08T09:26:18;31.17;;;23.70;;
6386;SDS011;3226;42.162;24.756;2024-03-08T09:28:56;24.80;;;17.07;;
6386;SDS011;3226;42.162;24.756;2024-03-08T09:31:24;26.77;;;19.30;;
6386;SDS011;3226;42.162;24.756;2024-03-08T09:33:52;25.63;;;18.63;;
6386;SDS011;3226;42.162;24.756;2024-03-08T09:36:20;24.77;;;16.33;;
6386;SDS011;3226;42.162;24.756;2024-03-08T09:38:48;28.90;;;18.27;;
6386;SDS011;3226;42.162;24.756;2024-03-08T09:41:16;28.43;;;18.33;;
6386;SDS011;3226;42.162;24.756;2024-03-08T09:43:44;26.87;;;17.00;;
6386;SDS011;3226;42.162;24.756;2024-03-08T09:46:15;28.77;;;23.57;;
6386;SDS011;3226;42.162;24.756;2024-03-08T09:48:43;26.40;;;16.80;;
6386;SDS011;3226;42.162;24.756;2024-03-08T09:51:12;27.00;;;18.30;;
6386;SDS011;3226;42.162;24.756;2024-03-08T09:53:41;27.87;;;16.43;;
6386;SDS011;3226;42.162;24.756;2024-03-08T09:56:09;34.80;;;17.97;;
6386;SDS011;3226;42.162;24.756;2024-03-08T09:58:38;27.70;;;16.53;;
6386;SDS011;3226;42.162;24.756;2024-03-08T10:01:46;26.47;;;18.57;;
6386;SDS011;3226;42.162;24.756;2024-03-08T10:04:14;27.63;;;17.60;;
6386;SDS011;3226;42.162;24.756;2024-03-08T10:06:43;32.87;;;18.73;;
6386;SDS011;3226;42.162;24.756;2024-03-08T10:09:13;32.00;;;19.07;;
6386;SDS011;3226;42.162;24.756;2024-03-08T10:11:43;27.27;;;17.73;;
6386;SDS011;3226;42.162;24.756;2024-03-08T10:14:11;42.57;;;21.10;;
6386;SDS011;3226;42.162;24.756;2024-03-08T10:16:39;30.90;;;17.33;;
6386;SDS011;3226;42.162;24.756;2024-03-08T10:19:08;29.67;;;18.63;;
6386;SDS011;3226;42.162;24.756;2024-03-08T10:21:47;25.80;;;18.57;;
6386;SDS011;3226;42.162;24.756;2024-03-08T10:24:15;27.30;;;17.40;;
6386;SDS011;3226;42.162;24.756;2024-03-08T10:26:43;26.03;;;17.70;;
6386;SDS011;3226;42.162;24.756;2024-03-08T10:29:11;27.67;;;20.63;;
6386;SDS011;3226;42.162;24.756;2024-03-08T10:31:42;27.73;;;16.00;;
6386;SDS011;3226;42.162;24.756;2024-03-08T10:34:12;25.80;;;16.77;;
6386;SDS011;3226;42.162;24.756;2024-03-08T10:36:40;28.47;;;17.33;;
6386;SDS011;3226;42.162;24.756;2024-03-08T10:39:10;28.10;;;18.10;;
6386;SDS011;3226;42.162;24.756;2024-03-08T10:41:50;24.50;;;16.87;;
6386;SDS011;3226;42.162;24.756;2024-03-08T10:44:26;25.73;;;17.23;;
6386;SDS011;3226;42.162;24.756;2024-03-08T10:47:09;26.00;;;17.03;;
6386;SDS011;3226;42.162;24.756;2024-03-08T10:49:46;25.17;;;17.33;;
6386;SDS011;3226;42.162;24.756;2024-03-08T10:52:20;27.20;;;18.07;;
6386;SDS011;3226;42.162;24.756;2024-03-08T10:54:49;27.67;;;15.40;;
6386;SDS011;3226;42.162;24.756;2024-03-08T10:57:20;26.77;;;17.63;;
6386;SDS011;3226;42.162;24.756;2024-03-08T10:59:50;23.23;;;16.23;;
6386;SDS011;3226;42.162;24.756;2024-03-08T11:02:23;31.97;;;19.00;;
6386;SDS011;3226;42.162;24.756;2024-03-08T11:04:55;26.00;;;16.87;;
6386;SDS011;3226;42.162;24.756;2024-03-08T11:07:24;20.77;;;15.30;;
6386;SDS011;3226;42.162;24.756;2024-03-08T11:09:54;19.70;;;14.47;;
6386;SDS011;3226;42.162;24.756;2024-03-08T11:12:24;29.07;;;15.70;;
6386;SDS011;3226;42.162;24.756;2024-03-08T11:14:56;30.80;;;20.37;;
6386;SDS011;3226;42.162;24.756;2024-03-08T11:17:40;25.80;;;23.13;;
6386;SDS011;3226;42.162;24.756;2024-03-08T11:20:14;21.93;;;16.40;;
6386;SDS011;3226;42.162;24.756;2024-03-08T11:22:47;22.93;;;15.70;;
6386;SDS011;3226;42.162;24.756;2024-03-08T11:25:30;27.93;;;15.60;;
6386;SDS011;3226;42.162;24.756;2024-03-08T11:28:07;21.83;;;15.23;;
6386;SDS011;3226;42.162;24.756;2024-03-08T11:30:44;26.03;;;16.33;;
6386;SDS011;3226;42.162;24.756;2024-03-08T11:33:14;26.03;;;16.07;;
6386;SDS011;3226;42.162;24.756;2024-03-08T11:35:44;22.57;;;16.03;;
6386;SDS011;3226;42.162;24.756;2024-03-08T11:38:12;19.13;;;16.00;;
6386;SDS011;3226;42.162;24.756;2024-03-08T11:40:43;21.20;;;15.23;;
6386;SDS011;3226;42.162;24.756;2024-03-08T11:43:16;17.90;;;12.80;;
6386;SDS011;3226;42.162;24.756;2024-03-08T11:45:44;20.93;;;14.90;;
6386;SDS011;3226;42.162;24.756;2024-03-08T11:48:12;19.00;;;14.93;;
6386;SDS011;3226;42.162;24.756;2024-03-08T11:50:41;25.13;;;14.80;;
6386;SDS011;3226;42.162;24.756;2024-03-08T11:53:11;24.23;;;17.20;;
6386;SDS011;3226;42.162;24.756;2024-03-08T11:55:40;23.63;;;15.57;;
6386;SDS011;3226;42.162;24.756;2024-03-08T11:58:10;22.40;;;17.70;;
6386;SDS011;3226;42.162;24.756;2024-03-08T12:00:40;25.17;;;15.37;;
6386;SDS011;3226;42.162;24.756;2024-03-08T12:03:08;25.03;;;19.57;;
6386;SDS011;3226;42.162;24.756;2024-03-08T12:05:37;20.20;;;16.30;;
6386;SDS011;3226;42.162;24.756;2024-03-08T12:08:05;22.60;;;19.57;;
6386;SDS011;3226;42.162;24.756;2024-03-08T12:10:37;19.87;;;13.90;;
6386;SDS011;3226;42.162;24.756;2024-03-08T12:13:06;18.40;;;13.80;;
6386;SDS011;3226;42.162;24.756;2024-03-08T12:15:39;21.83;;;14.03;;
6386;SDS011;3226;42.162;24.756;2024-03-08T12:18:08;18.40;;;13.63;;
6386;SDS011;3226;42.162;24.756;2024-03-08T12:20:37;25.57;;;14.73;;
6386;SDS011;3226;42.162;24.756;2024-03-08T12:23:05;17.53;;;14.13;;
6386;SDS011;3226;42.162;24.756;2024-03-08T12:25:33;17.97;;;12.40;;
6386;SDS011;3226;42.162;24.756;2024-03-08T12:28:10;23.57;;;16.13;;
6386;SDS011;3226;42.162;24.756;2024-03-08T12:30:45;21.67;;;13.57;;
6386;SDS011;3226;42.162;24.756;2024-03-08T12:33:15;20.13;;;15.00;;
6386;SDS011;3226;42.162;24.756;2024-03-08T12:35:50;18.87;;;12.30;;
6386;SDS011;3226;42.162;24.756;2024-03-08T12:38:21;19.37;;;14.20;;
6386;SDS011;3226;42.162;24.756;2024-03-08T12:40:54;17.00;;;13.47;;
6386;SDS011;3226;42.162;24.756;2024-03-08T12:43:25;17.20;;;13.00;;
6386;SDS011;3226;42.162;24.756;2024-03-08T12:45:57;14.90;;;11.27;;
6386;SDS011;3226;42.162;24.756;2024-03-08T12:48:25;22.20;;;12.47;;
6386;SDS011;3226;42.162;24.756;2024-03-08T12:50:53;20.60;;;12.97;;
6386;SDS011;3226;42.162;24.756;2024-03-08T12:53:21;16.93;;;12.80;;
6386;SDS011;3226;42.162;24.756;2024-03-08T12:55:51;13.87;;;11.80;;
6386;SDS011;3226;42.162;24.756;2024-03-08T12:58:22;15.83;;;12.03;;
6386;SDS011;3226;42.162;24.756;2024-03-08T13:00:52;17.03;;;12.70;;
6386;SDS011;3226;42.162;24.756;2024-03-08T13:03:20;16.83;;;13.83;;
6386;SDS011;3226;42.162;24.756;2024-03-08T13:05:49;15.83;;;13.93;;
6386;SDS011;3226;42.162;24.756;2024-03-08T13:08:17;18.03;;;13.20;;
6386;SDS011;3226;42.162;24.756;2024-03-08T13:10:45;13.57;;;11.17;;
6386;SDS011;3226;42.162;24.756;2024-03-08T13:13:14;16.30;;;11.73;;
6386;SDS011;3226;42.162;24.756;2024-03-08T13:15:45;16.07;;;11.33;;
6386;SDS011;3226;42.162;24.756;2024-03-08T13:18:13;19.13;;;12.30;;
6386;SDS011;3226;42.162;24.756;2024-03-08T13:20:42;14.00;;;10.97;;
6386;SDS011;3226;42.162;24.756;2024-03-08T13:23:15;17.67;;;11.83;;
6386;SDS011;3226;42.162;24.756;2024-03-08T13:25:44;13.57;;;10.93;;
6386;SDS011;3226;42.162;24.756;2024-03-08T13:28:14;13.27;;;10.97;;
6386;SDS011;3226;42.162;24.756;2024-03-08T13:30:43;13.43;;;10.67;;
6386;SDS011;3226;42.162;24.756;2024-03-08T13:33:13;17.27;;;15.67;;
6386;SDS011;3226;42.162;24.756;2024-03-08T13:35:41;19.57;;;17.90;;
6386;SDS011;3226;42.162;24.756;2024-03-08T13:38:09;12.70;;;11.37;;
6386;SDS011;3226;42.162;24.756;2024-03-08T13:40:39;13.10;;;11.00;;
6386;SDS011;3226;42.162;24.756;2024-03-08T13:43:07;12.67;;;10.87;;
6386;SDS011;3226;42.162;24.756;2024-03-08T13:45:35;10.57;;;9.57;;
6386;SDS011;3226;42.162;24.756;2024-03-08T13:48:05;11.30;;;10.03;;
6386;SDS011;3226;42.162;24.756;2024-03-08T13:50:34;15.90;;;10.80;;
6386;SDS011;3226;42.162;24.756;2024-03-08T13:53:02;12.93;;;10.33;;
6386;SDS011;3226;42.162;24.756;2024-03-08T13:55:31;13.40;;;12.03;;
6386;SDS011;3226;42.162;24.756;2024-03-08T13:58:00;12.60;;;11.40;;
6386;SDS011;3226;42.162;24.756;2024-03-08T14:00:28;15.63;;;11.33;;
6386;SDS011;3226;42.162;24.756;2024-03-08T14:03:00;14.73;;;11.23;;
6386;SDS011;3226;42.162;24.756;2024-03-08T14:05:31;16.40;;;10.47;;
6386;SDS011;3226;42.162;24.756;2024-03-08T14:08:02;15.53;;;14.17;;
6386;SDS011;3226;42.162;24.756;2024-03-08T14:10:30;19.63;;;17.97;;
6386;SDS011;3226;42.162;24.756;2024-03-08T14:12:58;13.00;;;11.60;;
6386;SDS011;3226;42.162;24.756;2024-03-08T14:15:27;13.33;;;12.03;;
6386;SDS011;3226;42.162;24.756;2024-03-08T14:17:55;26.17;;;24.03;;
6386;SDS011;3226;42.162;24.756;2024-03-08T14:20:24;18.67;;;17.17;;
6386;SDS011;3226;42.162;24.756;2024-03-08T14:22:52;18.73;;;17.27;;
6386;SDS011;3226;42.162;24.756;2024-03-08T14:25:23;12.50;;;10.37;;
6386;SDS011;3226;42.162;24.756;2024-03-08T14:27:51;20.40;;;18.57;;
6386;SDS011;3226;42.162;24.756;2024-03-08T14:30:24;11.60;;;10.50;;
6386;SDS011;3226;42.162;24.756;2024-03-08T14:33:04;19.83;;;16.57;;
6386;SDS011;3226;42.162;24.756;2024-03-08T14:35:35;17.27;;;12.83;;
6386;SDS011;3226;42.162;24.756;2024-03-08T14:38:04;14.00;;;10.60;;
6386;SDS011;3226;42.162;24.756;2024-03-08T14:40:36;12.17;;;10.63;;
6386;SDS011;3226;42.162;24.756;2024-03-08T14:43:04;15.60;;;14.03;;
6386;SDS011;3226;42.162;24.756;2024-03-08T14:45:32;17.63;;;15.07;;